sensor_id;sensor_type;location;lat;lon;timestamp;temperature;humidity
24103;DHT22;12278;53.058;9.028;2023-03-01T00:02:08;-0.80;99.90
24103;DHT22;12278;53.058;9.028;2023-03-01T00:06:10;-0.70;99.90
24103;DHT22;12278;53.058;9.028;2023-03-01T00:10:11;-0.70;99.90
24103;DHT22;12278;53.058;9.028;2023-03-01T00:14:12;-0.80;99.90
24103;DHT22;12278;53.058;9.028;2023-03-01T00:18:13;-0.80;99.90
24103;DHT22;12278;53.058;9.028;2023-03-01T00:22:14;-0.90;99.90
24103;DHT22;12278;53.058;9.028;2023-03-01T00:26:15;-0.90;99.90
24103;DHT22;12278;53.058;9.028;2023-03-01T00:30:34;-0.90;99.90
24103;DHT22;12278;53.058;9.028;2023-03-01T00:34:35;-0.90;99.90
24103;DHT22;12278;53.058;9.028;2023-03-01T00:38:37;-0.90;99.90
24103;DHT22;12278;53.058;9.028;2023-03-01T00:42:38;-0.90;99.90
24103;DHT22;12278;53.058;9.028;2023-03-01T00:46:38;-1.00;99.90
24103;DHT22;12278;53.058;9.028;2023-03-01T00:50:39;-1.10;99.90
24103;DHT22;12278;53.058;9.028;2023-03-01T00:54:40;-1.10;99.90
24103;DHT22;12278;53.058;9.028;2023-03-01T00:58:41;-1.20;99.90
24103;DHT22;12278;53.058;9.028;2023-03-01T01:02:42;-1.20;99.90
24103;DHT22;12278;53.058;9.028;2023-03-01T01:06:45;-1.20;99.90
24103;DHT22;12278;53.058;9.028;2023-03-01T01:10:47;-1.20;99.90
24103;DHT22;12278;53.058;9.028;2023-03-01T01:14:48;-1.30;99.90
24103;DHT22;12278;53.058;9.028;2023-03-01T01:18:53;-1.20;99.90
24103;DHT22;12278;53.058;9.028;2023-03-01T01:22:54;-1.30;99.90
24103;DHT22;12278;53.058;9.028;2023-03-01T01:26:55;-1.40;99.90
24103;DHT22;12278;53.058;9.028;2023-03-01T01:30:55;-1.30;99.90
24103;DHT22;12278;53.058;9.028;2023-03-01T01:34:56;-1.30;99.90
24103;DHT22;12278;53.058;9.028;2023-03-01T01:39:19;-1.30;99.90
24103;DHT22;12278;53.058;9.028;2023-03-01T01:43:26;-1.40;99.90
24103;DHT22;12278;53.058;9.028;2023-03-01T01:47:27;-1.40;99.90
24103;DHT22;12278;53.058;9.028;2023-03-01T01:51:39;-1.40;99.90
24103;DHT22;12278;53.058;9.028;2023-03-01T01:55:48;-1.50;99.90
24103;DHT22;12278;53.058;9.028;2023-03-01T02:04:36;-1.50;99.90
24103;DHT22;12278;53.058;9.028;2023-03-01T02:08:38;-1.60;99.90
24103;DHT22;12278;53.058;9.028;2023-03-01T02:12:49;-1.50;99.90
24103;DHT22;12278;53.058;9.028;2023-03-01T02:16:50;-1.60;99.90
24103;DHT22;12278;53.058;9.028;2023-03-01T02:29:20;-1.60;99.90
24103;DHT22;12278;53.058;9.028;2023-03-01T02:33:22;-1.70;99.90
24103;DHT22;12278;53.058;9.028;2023-03-01T02:37:24;-1.70;99.90
24103;DHT22;12278;53.058;9.028;2023-03-01T02:41:27;-1.70;99.90
24103;DHT22;12278;53.058;9.028;2023-03-01T02:45:28;-1.80;99.90
24103;DHT22;12278;53.058;9.028;2023-03-01T02:49:44;-1.90;99.90
24103;DHT22;12278;53.058;9.028;2023-03-01T02:53:52;-1.80;99.90
24103;DHT22;12278;53.058;9.028;2023-03-01T02:57:56;-1.70;99.90
24103;DHT22;12278;53.058;9.028;2023-03-01T03:01:57;-1.60;99.90
24103;DHT22;12278;53.058;9.028;2023-03-01T03:05:58;-1.50;99.90
24103;DHT22;12278;53.058;9.028;2023-03-01T03:09:58;-1.60;99.90
24103;DHT22;12278;53.058;9.028;2023-03-01T03:13:59;-1.70;99.90
24103;DHT22;12278;53.058;9.028;2023-03-01T03:18:00;-1.70;99.90
24103;DHT22;12278;53.058;9.028;2023-03-01T03:22:00;-1.60;99.90
24103;DHT22;12278;53.058;9.028;2023-03-01T03:26:12;-1.60;99.90
24103;DHT22;12278;53.058;9.028;2023-03-01T03:30:16;-1.70;99.90
24103;DHT22;12278;53.058;9.028;2023-03-01T03:34:17;-1.70;99.90
24103;DHT22;12278;53.058;9.028;2023-03-01T03:38:19;-1.60;99.90
24103;DHT22;12278;53.058;9.028;2023-03-01T03:42:22;-1.50;99.90
24103;DHT22;12278;53.058;9.028;2023-03-01T03:46:22;-1.40;99.90
24103;DHT22;12278;53.058;9.028;2023-03-01T03:50:23;-1.50;99.90
24103;DHT22;12278;53.058;9.028;2023-03-01T03:54:24;-1.50;99.90
24103;DHT22;12278;53.058;9.028;2023-03-01T03:58:25;-1.60;99.90
24103;DHT22;12278;53.058;9.028;2023-03-01T04:02:26;-1.70;99.90
24103;DHT22;12278;53.058;9.028;2023-03-01T04:06:27;-1.70;99.90
24103;DHT22;12278;53.058;9.028;2023-03-01T04:10:30;-1.70;99.90
24103;DHT22;12278;53.058;9.028;2023-03-01T04:14:31;-1.80;99.90
24103;DHT22;12278;53.058;9.028;2023-03-01T04:18:32;-2.00;99.90
24103;DHT22;12278;53.058;9.028;2023-03-01T04:22:32;-2.20;99.90
24103;DHT22;12278;53.058;9.028;2023-03-01T04:26:33;-2.00;99.90
24103;DHT22;12278;53.058;9.028;2023-03-01T04:30:35;-2.00;99.90
24103;DHT22;12278;53.058;9.028;2023-03-01T04:34:36;-2.10;99.90
24103;DHT22;12278;53.058;9.028;2023-03-01T04:38:37;-2.00;99.90
24103;DHT22;12278;53.058;9.028;2023-03-01T04:42:39;-2.00;99.90
24103;DHT22;12278;53.058;9.028;2023-03-01T04:46:39;-2.10;99.90
24103;DHT22;12278;53.058;9.028;2023-03-01T04:50:53;-2.10;99.90
24103;DHT22;12278;53.058;9.028;2023-03-01T04:54:55;-2.20;99.90
24103;DHT22;12278;53.058;9.028;2023-03-01T04:58:56;-2.20;99.90
24103;DHT22;12278;53.058;9.028;2023-03-01T05:02:59;-2.30;99.90
24103;DHT22;12278;53.058;9.028;2023-03-01T05:07:00;-2.20;99.90
24103;DHT22;12278;53.058;9.028;2023-03-01T05:11:02;-2.30;99.90
24103;DHT22;12278;53.058;9.028;2023-03-01T05:15:03;-2.40;99.90
24103;DHT22;12278;53.058;9.028;2023-03-01T05:19:07;-2.30;99.90
24103;DHT22;12278;53.058;9.028;2023-03-01T05:23:15;-2.30;99.90
24103;DHT22;12278;53.058;9.028;2023-03-01T05:27:22;-2.30;99.90
24103;DHT22;12278;53.058;9.028;2023-03-01T05:31:23;-2.40;99.90
24103;DHT22;12278;53.058;9.028;2023-03-01T05:35:24;-2.60;99.90
24103;DHT22;12278;53.058;9.028;2023-03-01T05:39:26;-2.50;99.90
24103;DHT22;12278;53.058;9.028;2023-03-01T05:43:30;-2.40;99.90
24103;DHT22;12278;53.058;9.028;2023-03-01T05:47:34;-2.30;99.90
24103;DHT22;12278;53.058;9.028;2023-03-01T05:51:35;-2.30;99.90
24103;DHT22;12278;53.058;9.028;2023-03-01T05:55:36;-2.40;99.90
24103;DHT22;12278;53.058;9.028;2023-03-01T05:59:37;-2.50;99.90
24103;DHT22;12278;53.058;9.028;2023-03-01T06:03:38;-2.50;99.90
24103;DHT22;12278;53.058;9.028;2023-03-01T06:07:38;-2.50;99.90
24103;DHT22;12278;53.058;9.028;2023-03-01T06:11:39;-2.50;99.90
24103;DHT22;12278;53.058;9.028;2023-03-01T06:15:40;-2.40;99.90
24103;DHT22;12278;53.058;9.028;2023-03-01T06:19:41;-2.40;99.90
24103;DHT22;12278;53.058;9.028;2023-03-01T06:23:41;-2.50;99.90
24103;DHT22;12278;53.058;9.028;2023-03-01T06:27:42;-2.50;99.90
24103;DHT22;12278;53.058;9.028;2023-03-01T06:31:43;-2.40;99.90
24103;DHT22;12278;53.058;9.028;2023-03-01T06:35:43;-2.30;99.90
24103;DHT22;12278;53.058;9.028;2023-03-01T06:39:44;-2.30;99.90
24103;DHT22;12278;53.058;9.028;2023-03-01T06:43:44;-2.30;99.90
24103;DHT22;12278;53.058;9.028;2023-03-01T06:47:45;-2.00;99.90
24103;DHT22;12278;53.058;9.028;2023-03-01T06:51:46;-1.60;99.90
24103;DHT22;12278;53.058;9.028;2023-03-01T06:55:47;-1.20;99.90
24103;DHT22;12278;53.058;9.028;2023-03-01T06:59:47;-1.00;99.90
24103;DHT22;12278;53.058;9.028;2023-03-01T07:03:48;-0.80;99.90
24103;DHT22;12278;53.058;9.028;2023-03-01T07:07:49;-0.70;99.90
24103;DHT22;12278;53.058;9.028;2023-03-01T07:11:50;-0.70;99.90
24103;DHT22;12278;53.058;9.028;2023-03-01T07:15:51;-0.50;99.90
24103;DHT22;12278;53.058;9.028;2023-03-01T07:19:51;-0.40;99.90
24103;DHT22;12278;53.058;9.028;2023-03-01T07:23:52;-0.20;99.90
24103;DHT22;12278;53.058;9.028;2023-03-01T07:27:53;-0.10;99.90
24103;DHT22;12278;53.058;9.028;2023-03-01T07:31:54;0.20;99.90
24103;DHT22;12278;53.058;9.028;2023-03-01T07:35:59;0.40;99.90
24103;DHT22;12278;53.058;9.028;2023-03-01T07:40:00;0.70;99.90
24103;DHT22;12278;53.058;9.028;2023-03-01T07:44:00;0.70;99.90
24103;DHT22;12278;53.058;9.028;2023-03-01T07:48:01;0.60;99.90
24103;DHT22;12278;53.058;9.028;2023-03-01T07:52:02;0.60;99.90
24103;DHT22;12278;53.058;9.028;2023-03-01T07:56:13;0.60;99.90
24103;DHT22;12278;53.058;9.028;2023-03-01T08:00:14;0.90;99.90
24103;DHT22;12278;53.058;9.028;2023-03-01T08:04:14;1.00;99.90
24103;DHT22;12278;53.058;9.028;2023-03-01T08:08:15;1.50;99.90
24103;DHT22;12278;53.058;9.028;2023-03-01T08:12:16;1.90;99.90
24103;DHT22;12278;53.058;9.028;2023-03-01T08:16:17;2.00;99.90
24103;DHT22;12278;53.058;9.028;2023-03-01T08:20:17;2.10;99.90
24103;DHT22;12278;53.058;9.028;2023-03-01T08:24:18;2.40;99.90
24103;DHT22;12278;53.058;9.028;2023-03-01T08:28:19;2.10;99.90
24103;DHT22;12278;53.058;9.028;2023-03-01T08:32:19;2.20;99.90
24103;DHT22;12278;53.058;9.028;2023-03-01T08:36:21;2.20;99.90
24103;DHT22;12278;53.058;9.028;2023-03-01T08:40:22;2.10;99.90
24103;DHT22;12278;53.058;9.028;2023-03-01T08:44:22;2.10;99.90
24103;DHT22;12278;53.058;9.028;2023-03-01T08:48:23;2.40;99.90
24103;DHT22;12278;53.058;9.028;2023-03-01T08:52:24;2.80;99.90
24103;DHT22;12278;53.058;9.028;2023-03-01T08:56:24;3.10;99.90
24103;DHT22;12278;53.058;9.028;2023-03-01T09:00:25;3.50;99.90
24103;DHT22;12278;53.058;9.028;2023-03-01T09:04:26;4.30;99.90
24103;DHT22;12278;53.058;9.028;2023-03-01T09:08:26;4.50;99.90
24103;DHT22;12278;53.058;9.028;2023-03-01T09:12:27;5.60;99.90
24103;DHT22;12278;53.058;9.028;2023-03-01T09:16:28;6.10;99.90
24103;DHT22;12278;53.058;9.028;2023-03-01T09:20:31;6.30;99.90
24103;DHT22;12278;53.058;9.028;2023-03-01T09:24:32;6.40;99.90
24103;DHT22;12278;53.058;9.028;2023-03-01T09:28:32;6.00;99.90
24103;DHT22;12278;53.058;9.028;2023-03-01T09:32:33;6.40;99.90
24103;DHT22;12278;53.058;9.028;2023-03-01T09:36:34;6.90;99.90
24103;DHT22;12278;53.058;9.028;2023-03-01T09:40:35;7.30;99.90
24103;DHT22;12278;53.058;9.028;2023-03-01T09:48:52;7.00;99.90
24103;DHT22;12278;53.058;9.028;2023-03-01T09:53:10;7.40;99.90
24103;DHT22;12278;53.058;9.028;2023-03-01T09:57:30;7.70;99.90
24103;DHT22;12278;53.058;9.028;2023-03-01T10:01:38;8.10;99.90
24103;DHT22;12278;53.058;9.028;2023-03-01T10:10:06;8.70;99.90
24103;DHT22;12278;53.058;9.028;2023-03-01T10:18:32;8.20;99.90
24103;DHT22;12278;53.058;9.028;2023-03-01T10:22:33;8.70;99.90
24103;DHT22;12278;53.058;9.028;2023-03-01T10:30:44;8.70;99.90
24103;DHT22;12278;53.058;9.028;2023-03-01T10:34:45;8.60;99.90
24103;DHT22;12278;53.058;9.028;2023-03-01T10:38:58;8.80;99.90
24103;DHT22;12278;53.058;9.028;2023-03-01T10:43:02;9.70;99.90
24103;DHT22;12278;53.058;9.028;2023-03-01T10:47:03;9.00;99.90
24103;DHT22;12278;53.058;9.028;2023-03-01T10:51:06;9.60;99.90
24103;DHT22;12278;53.058;9.028;2023-03-01T10:55:36;9.90;99.90
24103;DHT22;12278;53.058;9.028;2023-03-01T10:59:38;10.20;99.20
24103;DHT22;12278;53.058;9.028;2023-03-01T11:03:39;10.50;99.40
24103;DHT22;12278;53.058;9.028;2023-03-01T11:07:53;10.90;99.20
24103;DHT22;12278;53.058;9.028;2023-03-01T11:11:57;10.90;98.50
24103;DHT22;12278;53.058;9.028;2023-03-01T11:16:03;10.80;99.10
24103;DHT22;12278;53.058;9.028;2023-03-01T11:24:14;11.50;98.80
24103;DHT22;12278;53.058;9.028;2023-03-01T11:28:17;12.20;98.90
24103;DHT22;12278;53.058;9.028;2023-03-01T11:32:21;12.30;97.90
24103;DHT22;12278;53.058;9.028;2023-03-01T11:36:32;12.80;97.50
24103;DHT22;12278;53.058;9.028;2023-03-01T11:40:59;13.40;96.40
24103;DHT22;12278;53.058;9.028;2023-03-01T11:45:08;11.90;97.40
24103;DHT22;12278;53.058;9.028;2023-03-01T12:49:41;11.60;99.90
24103;DHT22;12278;53.058;9.028;2023-03-01T12:53:49;11.10;99.90
24103;DHT22;12278;53.058;9.028;2023-03-01T12:58:00;11.50;99.90
24103;DHT22;12278;53.058;9.028;2023-03-01T13:02:25;10.60;99.90
24103;DHT22;12278;53.058;9.028;2023-03-01T13:06:55;11.10;99.90
24103;DHT22;12278;53.058;9.028;2023-03-01T13:11:01;12.10;99.90
24103;DHT22;12278;53.058;9.028;2023-03-01T13:15:03;11.80;99.20
24103;DHT22;12278;53.058;9.028;2023-03-01T13:19:32;11.30;99.80
24103;DHT22;12278;53.058;9.028;2023-03-01T13:23:38;11.90;99.90
24103;DHT22;12278;53.058;9.028;2023-03-01T13:27:39;12.50;99.10
24103;DHT22;12278;53.058;9.028;2023-03-01T13:35:42;13.30;97.30
24103;DHT22;12278;53.058;9.028;2023-03-01T13:39:43;13.20;97.50
24103;DHT22;12278;53.058;9.028;2023-03-01T13:43:46;12.70;98.00
24103;DHT22;12278;53.058;9.028;2023-03-01T13:47:52;13.00;97.60
24103;DHT22;12278;53.058;9.028;2023-03-01T13:51:54;14.50;96.70
24103;DHT22;12278;53.058;9.028;2023-03-01T13:56:00;15.10;95.20
24103;DHT22;12278;53.058;9.028;2023-03-01T14:00:03;15.80;93.80
24103;DHT22;12278;53.058;9.028;2023-03-01T14:04:26;16.90;92.30
24103;DHT22;12278;53.058;9.028;2023-03-01T14:08:30;16.90;92.00
24103;DHT22;12278;53.058;9.028;2023-03-01T14:12:54;17.40;90.90
24103;DHT22;12278;53.058;9.028;2023-03-01T14:21:16;17.30;90.60
24103;DHT22;12278;53.058;9.028;2023-03-01T14:25:23;16.50;91.00
24103;DHT22;12278;53.058;9.028;2023-03-01T14:29:26;16.70;90.20
24103;DHT22;12278;53.058;9.028;2023-03-01T14:33:29;16.20;91.40
24103;DHT22;12278;53.058;9.028;2023-03-01T14:37:34;16.60;91.00
24103;DHT22;12278;53.058;9.028;2023-03-01T14:41:35;17.50;90.00
24103;DHT22;12278;53.058;9.028;2023-03-01T14:45:36;18.60;87.10
24103;DHT22;12278;53.058;9.028;2023-03-01T14:49:37;19.80;82.60
24103;DHT22;12278;53.058;9.028;2023-03-01T14:53:38;19.70;82.00
24103;DHT22;12278;53.058;9.028;2023-03-01T14:57:43;19.40;81.90
24103;DHT22;12278;53.058;9.028;2023-03-01T15:01:44;18.80;82.80
24103;DHT22;12278;53.058;9.028;2023-03-01T15:05:45;19.10;82.20
24103;DHT22;12278;53.058;9.028;2023-03-01T15:09:46;18.00;83.30
24103;DHT22;12278;53.058;9.028;2023-03-01T15:13:51;18.60;84.20
24103;DHT22;12278;53.058;9.028;2023-03-01T15:17:59;19.20;82.80
24103;DHT22;12278;53.058;9.028;2023-03-01T15:22:00;18.70;81.40
24103;DHT22;12278;53.058;9.028;2023-03-01T15:26:35;18.30;84.70
24103;DHT22;12278;53.058;9.028;2023-03-01T15:30:37;16.90;88.40
24103;DHT22;12278;53.058;9.028;2023-03-01T15:34:38;14.80;91.80
24103;DHT22;12278;53.058;9.028;2023-03-01T15:38:53;13.90;94.50
24103;DHT22;12278;53.058;9.028;2023-03-01T15:42:54;14.00;94.10
24103;DHT22;12278;53.058;9.028;2023-03-01T15:46:56;14.50;93.60
24103;DHT22;12278;53.058;9.028;2023-03-01T15:50:58;15.00;93.00
24103;DHT22;12278;53.058;9.028;2023-03-01T15:55:02;15.60;92.00
24103;DHT22;12278;53.058;9.028;2023-03-01T15:59:03;15.50;92.40
24103;DHT22;12278;53.058;9.028;2023-03-01T16:03:06;15.20;92.60
24103;DHT22;12278;53.058;9.028;2023-03-01T16:07:09;14.00;93.80
24103;DHT22;12278;53.058;9.028;2023-03-01T16:11:21;12.20;96.60
24103;DHT22;12278;53.058;9.028;2023-03-01T16:15:29;10.90;99.90
24103;DHT22;12278;53.058;9.028;2023-03-01T16:19:30;9.70;99.90
24103;DHT22;12278;53.058;9.028;2023-03-01T16:23:31;9.00;99.90
24103;DHT22;12278;53.058;9.028;2023-03-01T16:27:31;8.60;99.90
24103;DHT22;12278;53.058;9.028;2023-03-01T16:31:32;8.50;99.90
24103;DHT22;12278;53.058;9.028;2023-03-01T16:35:33;8.20;99.90
24103;DHT22;12278;53.058;9.028;2023-03-01T16:39:33;7.80;99.90
24103;DHT22;12278;53.058;9.028;2023-03-01T16:43:34;7.30;99.90
24103;DHT22;12278;53.058;9.028;2023-03-01T16:47:34;7.00;99.90
24103;DHT22;12278;53.058;9.028;2023-03-01T16:51:35;6.80;99.90
24103;DHT22;12278;53.058;9.028;2023-03-01T16:55:36;6.60;99.90
24103;DHT22;12278;53.058;9.028;2023-03-01T16:59:38;6.30;99.90
24103;DHT22;12278;53.058;9.028;2023-03-01T17:03:39;6.10;99.90
24103;DHT22;12278;53.058;9.028;2023-03-01T17:07:40;6.10;99.90
24103;DHT22;12278;53.058;9.028;2023-03-01T17:11:41;6.00;99.90
24103;DHT22;12278;53.058;9.028;2023-03-01T17:15:41;5.80;99.90
24103;DHT22;12278;53.058;9.028;2023-03-01T17:19:42;5.70;99.90
24103;DHT22;12278;53.058;9.028;2023-03-01T17:23:44;5.60;99.90
24103;DHT22;12278;53.058;9.028;2023-03-01T17:27:45;5.70;99.90
24103;DHT22;12278;53.058;9.028;2023-03-01T17:31:46;5.70;99.90
24103;DHT22;12278;53.058;9.028;2023-03-01T17:35:47;5.70;99.90
24103;DHT22;12278;53.058;9.028;2023-03-01T17:39:47;5.70;99.90
24103;DHT22;12278;53.058;9.028;2023-03-01T17:43:48;5.70;99.90
24103;DHT22;12278;53.058;9.028;2023-03-01T17:47:55;5.70;99.90
24103;DHT22;12278;53.058;9.028;2023-03-01T17:51:55;5.60;99.90
24103;DHT22;12278;53.058;9.028;2023-03-01T17:56:02;5.50;99.90
24103;DHT22;12278;53.058;9.028;2023-03-01T18:00:04;5.40;99.90
24103;DHT22;12278;53.058;9.028;2023-03-01T18:04:04;5.40;99.90
24103;DHT22;12278;53.058;9.028;2023-03-01T18:08:05;5.20;99.90
24103;DHT22;12278;53.058;9.028;2023-03-01T18:12:06;5.10;99.90
24103;DHT22;12278;53.058;9.028;2023-03-01T18:16:08;4.90;99.90
24103;DHT22;12278;53.058;9.028;2023-03-01T18:20:10;4.90;99.90
24103;DHT22;12278;53.058;9.028;2023-03-01T18:24:12;4.70;99.90
24103;DHT22;12278;53.058;9.028;2023-03-01T18:28:13;4.40;99.90
24103;DHT22;12278;53.058;9.028;2023-03-01T18:32:14;4.30;99.90
24103;DHT22;12278;53.058;9.028;2023-03-01T18:36:30;4.30;99.90
24103;DHT22;12278;53.058;9.028;2023-03-01T18:40:31;4.20;99.90
24103;DHT22;12278;53.058;9.028;2023-03-01T18:44:32;4.00;99.90
24103;DHT22;12278;53.058;9.028;2023-03-01T18:48:33;4.00;99.90
24103;DHT22;12278;53.058;9.028;2023-03-01T18:52:35;3.90;99.90
24103;DHT22;12278;53.058;9.028;2023-03-01T18:56:53;3.70;99.90
24103;DHT22;12278;53.058;9.028;2023-03-01T19:00:54;3.60;99.90
24103;DHT22;12278;53.058;9.028;2023-03-01T19:04:55;3.50;99.90
24103;DHT22;12278;53.058;9.028;2023-03-01T19:08:56;3.40;99.90
24103;DHT22;12278;53.058;9.028;2023-03-01T19:12:57;3.30;99.90
24103;DHT22;12278;53.058;9.028;2023-03-01T19:16:57;3.30;99.90
24103;DHT22;12278;53.058;9.028;2023-03-01T19:20:59;3.10;99.90
24103;DHT22;12278;53.058;9.028;2023-03-01T19:25:01;2.90;99.90
24103;DHT22;12278;53.058;9.028;2023-03-01T19:29:02;2.90;99.90
24103;DHT22;12278;53.058;9.028;2023-03-01T19:33:04;2.80;99.90
24103;DHT22;12278;53.058;9.028;2023-03-01T19:37:05;2.60;99.90
24103;DHT22;12278;53.058;9.028;2023-03-01T19:41:11;2.50;99.90
24103;DHT22;12278;53.058;9.028;2023-03-01T19:45:14;2.50;99.90
24103;DHT22;12278;53.058;9.028;2023-03-01T19:49:14;2.50;99.90
24103;DHT22;12278;53.058;9.028;2023-03-01T19:53:15;2.60;99.90
24103;DHT22;12278;53.058;9.028;2023-03-01T19:57:21;2.60;99.90
24103;DHT22;12278;53.058;9.028;2023-03-01T20:01:21;2.80;99.90
24103;DHT22;12278;53.058;9.028;2023-03-01T20:05:23;3.00;99.90
24103;DHT22;12278;53.058;9.028;2023-03-01T20:09:24;2.90;99.90
24103;DHT22;12278;53.058;9.028;2023-03-01T20:13:24;3.00;99.90
24103;DHT22;12278;53.058;9.028;2023-03-01T20:17:25;3.00;99.90
24103;DHT22;12278;53.058;9.028;2023-03-01T20:21:26;2.80;99.90
24103;DHT22;12278;53.058;9.028;2023-03-01T20:25:27;2.90;99.90
24103;DHT22;12278;53.058;9.028;2023-03-01T20:29:27;2.80;99.90
24103;DHT22;12278;53.058;9.028;2023-03-01T20:33:39;2.90;99.90
24103;DHT22;12278;53.058;9.028;2023-03-01T20:37:39;2.90;99.90
24103;DHT22;12278;53.058;9.028;2023-03-01T20:41:40;2.80;99.90
24103;DHT22;12278;53.058;9.028;2023-03-01T20:45:41;3.00;99.90
24103;DHT22;12278;53.058;9.028;2023-03-01T20:49:41;3.10;99.90
24103;DHT22;12278;53.058;9.028;2023-03-01T20:53:42;3.10;99.90
24103;DHT22;12278;53.058;9.028;2023-03-01T20:57:43;3.20;99.90
24103;DHT22;12278;53.058;9.028;2023-03-01T21:01:44;3.00;99.90
24103;DHT22;12278;53.058;9.028;2023-03-01T21:05:44;3.00;99.90
24103;DHT22;12278;53.058;9.028;2023-03-01T21:09:54;3.10;99.90
24103;DHT22;12278;53.058;9.028;2023-03-01T21:13:56;3.20;99.90
24103;DHT22;12278;53.058;9.028;2023-03-01T21:17:58;3.20;99.90
24103;DHT22;12278;53.058;9.028;2023-03-01T21:21:58;3.20;99.90
24103;DHT22;12278;53.058;9.028;2023-03-01T21:26:17;3.20;99.90
24103;DHT22;12278;53.058;9.028;2023-03-01T21:30:21;3.30;99.90
24103;DHT22;12278;53.058;9.028;2023-03-01T21:34:22;3.40;99.90
24103;DHT22;12278;53.058;9.028;2023-03-01T21:38:22;3.40;99.90
24103;DHT22;12278;53.058;9.028;2023-03-01T21:42:23;3.30;99.90
24103;DHT22;12278;53.058;9.028;2023-03-01T21:46:26;3.20;99.90
24103;DHT22;12278;53.058;9.028;2023-03-01T21:50:29;3.00;99.90
24103;DHT22;12278;53.058;9.028;2023-03-01T21:54:38;3.00;99.90
24103;DHT22;12278;53.058;9.028;2023-03-01T21:58:39;3.00;99.90
24103;DHT22;12278;53.058;9.028;2023-03-01T22:02:44;2.80;99.90
24103;DHT22;12278;53.058;9.028;2023-03-01T22:06:46;2.60;99.90
24103;DHT22;12278;53.058;9.028;2023-03-01T22:10:49;2.50;99.90
24103;DHT22;12278;53.058;9.028;2023-03-01T22:14:49;2.30;99.90
24103;DHT22;12278;53.058;9.028;2023-03-01T22:18:50;2.20;99.90
24103;DHT22;12278;53.058;9.028;2023-03-01T22:22:51;2.20;99.90
24103;DHT22;12278;53.058;9.028;2023-03-01T22:26:52;2.20;99.90
24103;DHT22;12278;53.058;9.028;2023-03-01T22:30:54;2.50;99.90
24103;DHT22;12278;53.058;9.028;2023-03-01T22:34:54;2.40;99.90
24103;DHT22;12278;53.058;9.028;2023-03-01T22:38:55;2.30;99.90
24103;DHT22;12278;53.058;9.028;2023-03-01T22:42:59;2.20;99.90
24103;DHT22;12278;53.058;9.028;2023-03-01T22:47:00;2.00;99.90
24103;DHT22;12278;53.058;9.028;2023-03-01T22:51:00;2.00;99.90
24103;DHT22;12278;53.058;9.028;2023-03-01T22:55:01;1.70;99.90
24103;DHT22;12278;53.058;9.028;2023-03-01T22:59:08;1.60;99.90
24103;DHT22;12278;53.058;9.028;2023-03-01T23:03:10;1.40;99.90
24103;DHT22;12278;53.058;9.028;2023-03-01T23:07:10;1.50;99.90
24103;DHT22;12278;53.058;9.028;2023-03-01T23:11:13;1.50;99.90
24103;DHT22;12278;53.058;9.028;2023-03-01T23:15:21;1.40;99.90
24103;DHT22;12278;53.058;9.028;2023-03-01T23:19:22;1.50;99.90
24103;DHT22;12278;53.058;9.028;2023-03-01T23:23:23;1.50;99.90
24103;DHT22;12278;53.058;9.028;2023-03-01T23:27:23;1.50;99.90
24103;DHT22;12278;53.058;9.028;2023-03-01T23:31:27;1.50;99.90
24103;DHT22;12278;53.058;9.028;2023-03-01T23:35:29;1.60;99.90
24103;DHT22;12278;53.058;9.028;2023-03-01T23:39:30;1.70;99.90
24103;DHT22;12278;53.058;9.028;2023-03-01T23:43:31;1.50;99.90
24103;DHT22;12278;53.058;9.028;2023-03-01T23:47:32;1.70;99.90
24103;DHT22;12278;53.058;9.028;2023-03-01T23:51:33;1.80;99.90
24103;DHT22;12278;53.058;9.028;2023-03-01T23:55:33;1.80;99.90
24103;DHT22;12278;53.058;9.028;2023-03-01T23:59:35;1.60;99.90
